sensor_id;sensor_type;location;lat;lon;timestamp;temperature;humidity
8643;DHT22;4359;49.358;11.256;2022-08-02T00:00:07;15.90;99.90
8643;DHT22;4359;49.358;11.256;2022-08-02T00:02:33;15.80;99.90
8643;DHT22;4359;49.358;11.256;2022-08-02T00:04:58;15.70;99.90
8643;DHT22;4359;49.358;11.256;2022-08-02T00:07:24;15.60;99.90
8643;DHT22;4359;49.358;11.256;2022-08-02T00:09:50;15.50;99.90
8643;DHT22;4359;49.358;11.256;2022-08-02T00:12:15;15.40;99.90
8643;DHT22;4359;49.358;11.256;2022-08-02T00:14:41;15.30;99.90
8643;DHT22;4359;49.358;11.256;2022-08-02T00:17:07;15.20;99.90
8643;DHT22;4359;49.358;11.256;2022-08-02T00:19:33;15.20;99.90
8643;DHT22;4359;49.358;11.256;2022-08-02T00:21:58;15.10;99.90
8643;DHT22;4359;49.358;11.256;2022-08-02T00:24:24;15.10;99.90
8643;DHT22;4359;49.358;11.256;2022-08-02T00:26:50;15.00;99.90
8643;DHT22;4359;49.358;11.256;2022-08-02T00:29:15;15.10;99.90
8643;DHT22;4359;49.358;11.256;2022-08-02T00:31:41;15.20;99.90
8643;DHT22;4359;49.358;11.256;2022-08-02T00:34:07;15.30;99.90
8643;DHT22;4359;49.358;11.256;2022-08-02T00:36:32;15.30;99.90
8643;DHT22;4359;49.358;11.256;2022-08-02T00:38:58;15.30;99.90
8643;DHT22;4359;49.358;11.256;2022-08-02T00:41:24;15.30;99.90
8643;DHT22;4359;49.358;11.256;2022-08-02T00:43:50;15.30;99.90
8643;DHT22;4359;49.358;11.256;2022-08-02T00:46:17;15.20;99.90
8643;DHT22;4359;49.358;11.256;2022-08-02T00:48:43;15.20;99.90
8643;DHT22;4359;49.358;11.256;2022-08-02T00:51:10;15.30;99.90
8643;DHT22;4359;49.358;11.256;2022-08-02T00:53:36;15.30;99.90
8643;DHT22;4359;49.358;11.256;2022-08-02T00:56:02;15.20;99.90
8643;DHT22;4359;49.358;11.256;2022-08-02T00:58:28;15.20;99.90
8643;DHT22;4359;49.358;11.256;2022-08-02T01:00:54;15.20;99.90
8643;DHT22;4359;49.358;11.256;2022-08-02T01:03:22;15.10;99.90
8643;DHT22;4359;49.358;11.256;2022-08-02T01:05:49;15.10;99.90
8643;DHT22;4359;49.358;11.256;2022-08-02T01:08:15;15.00;99.90
8643;DHT22;4359;49.358;11.256;2022-08-02T01:10:40;14.90;99.90
8643;DHT22;4359;49.358;11.256;2022-08-02T01:13:06;14.90;99.90
8643;DHT22;4359;49.358;11.256;2022-08-02T01:15:35;14.90;99.90
8643;DHT22;4359;49.358;11.256;2022-08-02T01:18:07;14.90;99.90
8643;DHT22;4359;49.358;11.256;2022-08-02T01:31:31;14.80;99.90
8643;DHT22;4359;49.358;11.256;2022-08-02T01:34:05;14.80;99.90
8643;DHT22;4359;49.358;11.256;2022-08-02T01:36:37;14.90;99.90
8643;DHT22;4359;49.358;11.256;2022-08-02T01:39:03;14.80;99.90
8643;DHT22;4359;49.358;11.256;2022-08-02T01:41:31;14.70;99.90
8643;DHT22;4359;49.358;11.256;2022-08-02T01:43:59;14.70;99.90
8643;DHT22;4359;49.358;11.256;2022-08-02T01:46:28;14.70;99.90
8643;DHT22;4359;49.358;11.256;2022-08-02T01:48:56;14.70;99.90
8643;DHT22;4359;49.358;11.256;2022-08-02T01:51:24;14.60;99.90
8643;DHT22;4359;49.358;11.256;2022-08-02T01:54:15;14.60;99.90
8643;DHT22;4359;49.358;11.256;2022-08-02T01:56:42;14.60;99.90
8643;DHT22;4359;49.358;11.256;2022-08-02T01:59:12;14.50;99.90
8643;DHT22;4359;49.358;11.256;2022-08-02T02:01:39;14.50;99.90
8643;DHT22;4359;49.358;11.256;2022-08-02T02:04:07;14.50;99.90
8643;DHT22;4359;49.358;11.256;2022-08-02T02:06:35;14.50;99.90
8643;DHT22;4359;49.358;11.256;2022-08-02T02:09:02;14.40;99.90
8643;DHT22;4359;49.358;11.256;2022-08-02T02:11:28;14.30;99.90
8643;DHT22;4359;49.358;11.256;2022-08-02T02:13:56;14.30;99.90
8643;DHT22;4359;49.358;11.256;2022-08-02T02:16:23;14.20;99.90
8643;DHT22;4359;49.358;11.256;2022-08-02T02:18:49;14.20;99.90
8643;DHT22;4359;49.358;11.256;2022-08-02T02:21:16;14.10;99.90
8643;DHT22;4359;49.358;11.256;2022-08-02T02:23:42;14.10;99.90
8643;DHT22;4359;49.358;11.256;2022-08-02T02:26:10;14.10;99.90
8643;DHT22;4359;49.358;11.256;2022-08-02T02:28:39;14.10;99.90
8643;DHT22;4359;49.358;11.256;2022-08-02T02:31:08;14.00;99.90
8643;DHT22;4359;49.358;11.256;2022-08-02T02:33:39;13.90;99.90
8643;DHT22;4359;49.358;11.256;2022-08-02T02:36:07;13.90;99.90
8643;DHT22;4359;49.358;11.256;2022-08-02T02:38:33;13.90;99.90
8643;DHT22;4359;49.358;11.256;2022-08-02T02:41:04;13.90;99.90
8643;DHT22;4359;49.358;11.256;2022-08-02T02:43:32;14.00;99.90
8643;DHT22;4359;49.358;11.256;2022-08-02T02:46:01;13.80;99.90
8643;DHT22;4359;49.358;11.256;2022-08-02T02:48:28;13.80;99.90
8643;DHT22;4359;49.358;11.256;2022-08-02T02:50:54;13.70;99.90
8643;DHT22;4359;49.358;11.256;2022-08-02T02:53:21;13.60;99.90
8643;DHT22;4359;49.358;11.256;2022-08-02T02:55:47;13.50;99.90
8643;DHT22;4359;49.358;11.256;2022-08-02T02:58:13;13.40;99.90
8643;DHT22;4359;49.358;11.256;2022-08-02T03:00:40;13.40;99.90
8643;DHT22;4359;49.358;11.256;2022-08-02T03:03:24;13.50;99.90
8643;DHT22;4359;49.358;11.256;2022-08-02T03:05:50;13.60;99.90
8643;DHT22;4359;49.358;11.256;2022-08-02T03:08:16;13.60;99.90
8643;DHT22;4359;49.358;11.256;2022-08-02T03:10:43;13.60;99.90
8643;DHT22;4359;49.358;11.256;2022-08-02T03:13:09;13.60;99.90
8643;DHT22;4359;49.358;11.256;2022-08-02T03:15:36;13.70;99.90
8643;DHT22;4359;49.358;11.256;2022-08-02T03:18:02;13.70;99.90
8643;DHT22;4359;49.358;11.256;2022-08-02T03:20:28;13.70;99.90
8643;DHT22;4359;49.358;11.256;2022-08-02T03:22:53;13.70;99.90
8643;DHT22;4359;49.358;11.256;2022-08-02T03:25:19;13.70;99.90
8643;DHT22;4359;49.358;11.256;2022-08-02T03:27:45;13.70;99.90
8643;DHT22;4359;49.358;11.256;2022-08-02T03:30:12;13.70;99.90
8643;DHT22;4359;49.358;11.256;2022-08-02T03:32:40;13.70;99.90
8643;DHT22;4359;49.358;11.256;2022-08-02T03:35:09;13.60;99.90
8643;DHT22;4359;49.358;11.256;2022-08-02T03:37:36;13.40;99.90
8643;DHT22;4359;49.358;11.256;2022-08-02T03:40:04;13.40;99.90
8643;DHT22;4359;49.358;11.256;2022-08-02T03:42:31;13.30;99.90
8643;DHT22;4359;49.358;11.256;2022-08-02T03:44:58;13.20;99.90
8643;DHT22;4359;49.358;11.256;2022-08-02T03:47:24;13.10;99.90
8643;DHT22;4359;49.358;11.256;2022-08-02T03:49:52;13.00;99.90
8643;DHT22;4359;49.358;11.256;2022-08-02T03:52:18;13.00;99.90
8643;DHT22;4359;49.358;11.256;2022-08-02T03:54:44;13.10;99.90
8643;DHT22;4359;49.358;11.256;2022-08-02T03:57:09;13.20;99.90
8643;DHT22;4359;49.358;11.256;2022-08-02T03:59:40;13.30;99.90
8643;DHT22;4359;49.358;11.256;2022-08-02T04:02:06;13.30;99.90
8643;DHT22;4359;49.358;11.256;2022-08-02T04:04:32;13.40;99.90
8643;DHT22;4359;49.358;11.256;2022-08-02T04:06:57;13.40;99.90
8643;DHT22;4359;49.358;11.256;2022-08-02T04:09:23;13.50;99.90
8643;DHT22;4359;49.358;11.256;2022-08-02T04:11:49;13.60;99.90
8643;DHT22;4359;49.358;11.256;2022-08-02T04:14:14;13.50;99.90
8643;DHT22;4359;49.358;11.256;2022-08-02T04:16:53;13.60;99.90
8643;DHT22;4359;49.358;11.256;2022-08-02T04:22:06;13.60;99.90
8643;DHT22;4359;49.358;11.256;2022-08-02T04:24:44;13.60;99.90
8643;DHT22;4359;49.358;11.256;2022-08-02T04:27:12;13.60;99.90
8643;DHT22;4359;49.358;11.256;2022-08-02T04:29:40;13.70;99.90
8643;DHT22;4359;49.358;11.256;2022-08-02T04:32:07;13.70;99.90
8643;DHT22;4359;49.358;11.256;2022-08-02T04:34:32;13.80;99.90
8643;DHT22;4359;49.358;11.256;2022-08-02T04:36:58;13.80;99.90
8643;DHT22;4359;49.358;11.256;2022-08-02T04:39:25;13.90;99.90
8643;DHT22;4359;49.358;11.256;2022-08-02T04:41:51;14.00;99.90
8643;DHT22;4359;49.358;11.256;2022-08-02T04:44:17;14.10;99.90
8643;DHT22;4359;49.358;11.256;2022-08-02T04:46:43;14.20;99.90
8643;DHT22;4359;49.358;11.256;2022-08-02T04:49:10;14.30;99.90
8643;DHT22;4359;49.358;11.256;2022-08-02T04:51:40;14.50;99.90
8643;DHT22;4359;49.358;11.256;2022-08-02T04:54:08;14.50;99.90
8643;DHT22;4359;49.358;11.256;2022-08-02T04:56:34;14.60;99.90
8643;DHT22;4359;49.358;11.256;2022-08-02T04:59:00;14.80;99.90
8643;DHT22;4359;49.358;11.256;2022-08-02T05:01:26;15.00;99.90
8643;DHT22;4359;49.358;11.256;2022-08-02T05:03:52;15.20;99.90
8643;DHT22;4359;49.358;11.256;2022-08-02T05:06:17;15.30;99.90
8643;DHT22;4359;49.358;11.256;2022-08-02T05:08:46;15.40;99.90
8643;DHT22;4359;49.358;11.256;2022-08-02T05:11:12;15.50;99.90
8643;DHT22;4359;49.358;11.256;2022-08-02T05:13:40;15.60;99.90
8643;DHT22;4359;49.358;11.256;2022-08-02T05:16:06;15.70;99.90
8643;DHT22;4359;49.358;11.256;2022-08-02T05:18:31;15.80;99.90
8643;DHT22;4359;49.358;11.256;2022-08-02T05:20:57;16.00;99.90
8643;DHT22;4359;49.358;11.256;2022-08-02T05:23:23;16.10;99.90
8643;DHT22;4359;49.358;11.256;2022-08-02T05:25:49;16.20;99.90
8643;DHT22;4359;49.358;11.256;2022-08-02T05:28:14;16.50;99.90
8643;DHT22;4359;49.358;11.256;2022-08-02T05:30:40;16.80;99.90
8643;DHT22;4359;49.358;11.256;2022-08-02T05:33:06;16.90;99.90
8643;DHT22;4359;49.358;11.256;2022-08-02T05:35:32;17.20;99.90
8643;DHT22;4359;49.358;11.256;2022-08-02T05:37:58;17.50;99.90
8643;DHT22;4359;49.358;11.256;2022-08-02T05:40:23;17.70;99.90
8643;DHT22;4359;49.358;11.256;2022-08-02T05:42:49;17.90;99.90
8643;DHT22;4359;49.358;11.256;2022-08-02T05:45:15;18.20;99.90
8643;DHT22;4359;49.358;11.256;2022-08-02T05:47:42;18.40;99.90
8643;DHT22;4359;49.358;11.256;2022-08-02T05:50:08;18.60;99.90
8643;DHT22;4359;49.358;11.256;2022-08-02T05:52:45;18.80;99.90
8643;DHT22;4359;49.358;11.256;2022-08-02T05:55:26;19.00;99.90
8643;DHT22;4359;49.358;11.256;2022-08-02T06:00:30;19.40;99.90
8643;DHT22;4359;49.358;11.256;2022-08-02T06:03:18;19.60;99.90
8643;DHT22;4359;49.358;11.256;2022-08-02T06:05:50;19.80;99.90
8643;DHT22;4359;49.358;11.256;2022-08-02T06:08:20;19.90;99.90
8643;DHT22;4359;49.358;11.256;2022-08-02T06:10:47;19.90;99.90
8643;DHT22;4359;49.358;11.256;2022-08-02T06:13:14;19.90;99.90
8643;DHT22;4359;49.358;11.256;2022-08-02T06:15:43;20.10;99.90
8643;DHT22;4359;49.358;11.256;2022-08-02T06:18:09;20.40;99.90
8643;DHT22;4359;49.358;11.256;2022-08-02T06:20:35;20.40;99.90
8643;DHT22;4359;49.358;11.256;2022-08-02T06:23:06;20.40;99.90
8643;DHT22;4359;49.358;11.256;2022-08-02T06:25:35;20.40;99.90
8643;DHT22;4359;49.358;11.256;2022-08-02T06:28:03;20.50;99.90
8643;DHT22;4359;49.358;11.256;2022-08-02T06:30:30;20.60;99.90
8643;DHT22;4359;49.358;11.256;2022-08-02T06:32:56;20.70;99.90
8643;DHT22;4359;49.358;11.256;2022-08-02T06:35:27;20.90;99.90
8643;DHT22;4359;49.358;11.256;2022-08-02T06:37:59;21.20;99.90
8643;DHT22;4359;49.358;11.256;2022-08-02T06:40:30;21.40;99.90
8643;DHT22;4359;49.358;11.256;2022-08-02T06:43:12;21.40;99.90
8643;DHT22;4359;49.358;11.256;2022-08-02T06:45:40;21.60;99.90
8643;DHT22;4359;49.358;11.256;2022-08-02T06:48:07;21.80;99.90
8643;DHT22;4359;49.358;11.256;2022-08-02T06:50:34;22.00;99.90
8643;DHT22;4359;49.358;11.256;2022-08-02T06:53:02;22.20;99.90
8643;DHT22;4359;49.358;11.256;2022-08-02T06:55:28;22.20;99.90
8643;DHT22;4359;49.358;11.256;2022-08-02T06:57:56;22.10;99.90
8643;DHT22;4359;49.358;11.256;2022-08-02T07:00:22;22.00;99.90
8643;DHT22;4359;49.358;11.256;2022-08-02T07:02:48;22.30;99.90
8643;DHT22;4359;49.358;11.256;2022-08-02T07:05:14;22.30;99.90
8643;DHT22;4359;49.358;11.256;2022-08-02T07:07:40;22.50;99.90
8643;DHT22;4359;49.358;11.256;2022-08-02T07:10:07;22.90;99.90
8643;DHT22;4359;49.358;11.256;2022-08-02T07:12:33;23.20;99.90
8643;DHT22;4359;49.358;11.256;2022-08-02T07:15:01;23.60;99.90
8643;DHT22;4359;49.358;11.256;2022-08-02T07:17:28;23.90;99.90
8643;DHT22;4359;49.358;11.256;2022-08-02T07:19:54;24.10;99.90
8643;DHT22;4359;49.358;11.256;2022-08-02T07:22:20;24.30;99.90
8643;DHT22;4359;49.358;11.256;2022-08-02T07:24:48;24.50;99.90
8643;DHT22;4359;49.358;11.256;2022-08-02T07:27:13;24.70;99.90
8643;DHT22;4359;49.358;11.256;2022-08-02T07:29:40;25.10;99.90
8643;DHT22;4359;49.358;11.256;2022-08-02T07:32:06;25.30;99.90
8643;DHT22;4359;49.358;11.256;2022-08-02T07:34:31;24.80;99.90
8643;DHT22;4359;49.358;11.256;2022-08-02T07:36:57;24.70;99.90
8643;DHT22;4359;49.358;11.256;2022-08-02T07:39:23;25.40;99.90
8643;DHT22;4359;49.358;11.256;2022-08-02T07:41:49;25.60;99.90
8643;DHT22;4359;49.358;11.256;2022-08-02T07:44:17;25.70;99.90
8643;DHT22;4359;49.358;11.256;2022-08-02T07:46:43;25.80;99.90
8643;DHT22;4359;49.358;11.256;2022-08-02T07:49:09;25.50;99.90
8643;DHT22;4359;49.358;11.256;2022-08-02T07:51:35;25.60;99.90
8643;DHT22;4359;49.358;11.256;2022-08-02T07:54:01;25.80;99.90
8643;DHT22;4359;49.358;11.256;2022-08-02T07:56:27;26.30;99.90
8643;DHT22;4359;49.358;11.256;2022-08-02T07:58:53;26.40;99.90
8643;DHT22;4359;49.358;11.256;2022-08-02T08:01:19;26.50;99.90
8643;DHT22;4359;49.358;11.256;2022-08-02T08:03:45;26.00;99.90
8643;DHT22;4359;49.358;11.256;2022-08-02T08:06:10;25.90;99.90
8643;DHT22;4359;49.358;11.256;2022-08-02T08:08:36;26.00;99.90
8643;DHT22;4359;49.358;11.256;2022-08-02T08:11:02;26.00;99.90
8643;DHT22;4359;49.358;11.256;2022-08-02T08:13:28;25.90;99.90
8643;DHT22;4359;49.358;11.256;2022-08-02T08:15:54;26.00;99.90
8643;DHT22;4359;49.358;11.256;2022-08-02T08:18:20;26.00;99.90
8643;DHT22;4359;49.358;11.256;2022-08-02T08:20:46;26.30;99.90
8643;DHT22;4359;49.358;11.256;2022-08-02T08:23:11;26.70;99.90
8643;DHT22;4359;49.358;11.256;2022-08-02T08:25:37;26.90;99.90
8643;DHT22;4359;49.358;11.256;2022-08-02T08:28:04;27.10;99.90
8643;DHT22;4359;49.358;11.256;2022-08-02T08:30:29;27.10;99.90
8643;DHT22;4359;49.358;11.256;2022-08-02T08:32:55;27.60;99.90
8643;DHT22;4359;49.358;11.256;2022-08-02T08:35:21;28.10;99.90
8643;DHT22;4359;49.358;11.256;2022-08-02T08:37:47;28.50;99.90
8643;DHT22;4359;49.358;11.256;2022-08-02T08:40:13;28.50;99.90
8643;DHT22;4359;49.358;11.256;2022-08-02T08:42:39;28.90;99.90
8643;DHT22;4359;49.358;11.256;2022-08-02T08:45:06;29.30;99.90
8643;DHT22;4359;49.358;11.256;2022-08-02T08:47:37;29.60;99.90
8643;DHT22;4359;49.358;11.256;2022-08-02T08:50:19;29.20;99.90
8643;DHT22;4359;49.358;11.256;2022-08-02T08:53:03;28.60;99.90
8643;DHT22;4359;49.358;11.256;2022-08-02T08:55:30;28.80;99.90
8643;DHT22;4359;49.358;11.256;2022-08-02T08:58:00;28.90;99.90
8643;DHT22;4359;49.358;11.256;2022-08-02T09:00:28;29.10;99.90
8643;DHT22;4359;49.358;11.256;2022-08-02T09:02:55;28.90;99.90
8643;DHT22;4359;49.358;11.256;2022-08-02T09:05:21;29.00;99.90
8643;DHT22;4359;49.358;11.256;2022-08-02T09:07:48;29.50;99.90
8643;DHT22;4359;49.358;11.256;2022-08-02T09:13:08;30.10;99.90
8643;DHT22;4359;49.358;11.256;2022-08-02T09:15:35;29.40;99.90
8643;DHT22;4359;49.358;11.256;2022-08-02T09:18:03;29.00;99.90
8643;DHT22;4359;49.358;11.256;2022-08-02T09:20:30;28.60;99.90
8643;DHT22;4359;49.358;11.256;2022-08-02T09:23:10;28.20;99.90
8643;DHT22;4359;49.358;11.256;2022-08-02T09:25:37;27.40;99.90
8643;DHT22;4359;49.358;11.256;2022-08-02T09:28:06;26.80;99.90
8643;DHT22;4359;49.358;11.256;2022-08-02T09:30:33;26.80;99.90
8643;DHT22;4359;49.358;11.256;2022-08-02T09:33:08;26.50;99.90
8643;DHT22;4359;49.358;11.256;2022-08-02T09:35:38;26.30;99.90
8643;DHT22;4359;49.358;11.256;2022-08-02T09:38:12;26.20;99.90
8643;DHT22;4359;49.358;11.256;2022-08-02T09:40:39;26.20;99.90
8643;DHT22;4359;49.358;11.256;2022-08-02T09:43:06;26.30;99.90
8643;DHT22;4359;49.358;11.256;2022-08-02T09:45:33;26.30;99.90
8643;DHT22;4359;49.358;11.256;2022-08-02T09:48:06;26.40;99.90
8643;DHT22;4359;49.358;11.256;2022-08-02T09:50:36;26.70;99.90
8643;DHT22;4359;49.358;11.256;2022-08-02T09:53:02;27.10;99.90
8643;DHT22;4359;49.358;11.256;2022-08-02T09:55:28;27.00;99.90
8643;DHT22;4359;49.358;11.256;2022-08-02T09:57:54;27.40;99.90
8643;DHT22;4359;49.358;11.256;2022-08-02T10:00:21;28.30;99.90
8643;DHT22;4359;49.358;11.256;2022-08-02T10:03:09;29.50;99.90
8643;DHT22;4359;49.358;11.256;2022-08-02T10:06:04;30.80;99.90
8643;DHT22;4359;49.358;11.256;2022-08-02T10:08:31;30.70;99.90
8643;DHT22;4359;49.358;11.256;2022-08-02T10:10:58;30.50;99.90
8643;DHT22;4359;49.358;11.256;2022-08-02T10:13:34;30.90;99.90
8643;DHT22;4359;49.358;11.256;2022-08-02T10:16:01;31.30;98.80
8643;DHT22;4359;49.358;11.256;2022-08-02T10:18:27;31.70;98.40
8643;DHT22;4359;49.358;11.256;2022-08-02T10:20:55;32.20;98.50
8643;DHT22;4359;49.358;11.256;2022-08-02T10:23:24;32.60;97.10
8643;DHT22;4359;49.358;11.256;2022-08-02T10:25:52;32.80;97.20
8643;DHT22;4359;49.358;11.256;2022-08-02T10:28:25;32.70;95.90
8643;DHT22;4359;49.358;11.256;2022-08-02T10:30:54;32.50;95.90
8643;DHT22;4359;49.358;11.256;2022-08-02T10:33:21;32.90;95.20
8643;DHT22;4359;49.358;11.256;2022-08-02T10:35:49;33.30;95.20
8643;DHT22;4359;49.358;11.256;2022-08-02T10:38:17;33.90;93.70
8643;DHT22;4359;49.358;11.256;2022-08-02T10:43:12;34.40;92.80
8643;DHT22;4359;49.358;11.256;2022-08-02T10:49:19;34.20;91.70
8643;DHT22;4359;49.358;11.256;2022-08-02T10:52:04;33.70;92.40
8643;DHT22;4359;49.358;11.256;2022-08-02T10:56:58;31.30;94.30
8643;DHT22;4359;49.358;11.256;2022-08-02T10:59:35;30.60;95.20
8643;DHT22;4359;49.358;11.256;2022-08-02T11:02:03;29.80;95.80
8643;DHT22;4359;49.358;11.256;2022-08-02T11:07:40;28.60;97.20
8643;DHT22;4359;49.358;11.256;2022-08-02T11:13:21;30.70;95.40
8643;DHT22;4359;49.358;11.256;2022-08-02T11:15:59;31.70;94.30
8643;DHT22;4359;49.358;11.256;2022-08-02T11:21:30;32.70;93.60
8643;DHT22;4359;49.358;11.256;2022-08-02T11:24:23;32.30;93.30
8643;DHT22;4359;49.358;11.256;2022-08-02T11:26:50;31.80;93.20
8643;DHT22;4359;49.358;11.256;2022-08-02T11:29:16;31.00;93.50
8643;DHT22;4359;49.358;11.256;2022-08-02T11:31:44;30.30;94.10
8643;DHT22;4359;49.358;11.256;2022-08-02T11:34:10;29.60;95.00
8643;DHT22;4359;49.358;11.256;2022-08-02T11:36:43;28.90;96.00
8643;DHT22;4359;49.358;11.256;2022-08-02T11:39:11;28.40;96.30
8643;DHT22;4359;49.358;11.256;2022-08-02T11:41:38;28.00;96.50
8643;DHT22;4359;49.358;11.256;2022-08-02T11:44:04;27.90;96.60
8643;DHT22;4359;49.358;11.256;2022-08-02T11:46:29;28.70;96.70
8643;DHT22;4359;49.358;11.256;2022-08-02T11:48:55;29.90;95.20
8643;DHT22;4359;49.358;11.256;2022-08-02T11:51:21;30.50;94.60
8643;DHT22;4359;49.358;11.256;2022-08-02T11:53:52;31.00;93.90
8643;DHT22;4359;49.358;11.256;2022-08-02T11:56:25;32.00;92.50
8643;DHT22;4359;49.358;11.256;2022-08-02T11:59:01;32.80;91.50
8643;DHT22;4359;49.358;11.256;2022-08-02T12:01:28;33.00;90.40
8643;DHT22;4359;49.358;11.256;2022-08-02T12:03:55;32.60;91.30
8643;DHT22;4359;49.358;11.256;2022-08-02T12:06:24;32.80;90.90
8643;DHT22;4359;49.358;11.256;2022-08-02T12:08:50;33.00;90.20
8643;DHT22;4359;49.358;11.256;2022-08-02T12:11:19;33.30;90.10
8643;DHT22;4359;49.358;11.256;2022-08-02T12:13:45;32.90;90.10
8643;DHT22;4359;49.358;11.256;2022-08-02T12:16:12;32.50;90.10
8643;DHT22;4359;49.358;11.256;2022-08-02T12:18:57;31.20;90.60
8643;DHT22;4359;49.358;11.256;2022-08-02T12:21:42;30.50;91.80
8643;DHT22;4359;49.358;11.256;2022-08-02T12:24:08;30.00;92.20
8643;DHT22;4359;49.358;11.256;2022-08-02T12:26:45;29.90;92.10
8643;DHT22;4359;49.358;11.256;2022-08-02T12:29:11;29.80;92.60
8643;DHT22;4359;49.358;11.256;2022-08-02T12:31:44;29.60;92.80
8643;DHT22;4359;49.358;11.256;2022-08-02T12:34:16;29.70;93.60
8643;DHT22;4359;49.358;11.256;2022-08-02T12:37:01;30.00;93.30
8643;DHT22;4359;49.358;11.256;2022-08-02T12:39:34;29.90;93.10
8643;DHT22;4359;49.358;11.256;2022-08-02T12:42:00;30.90;91.70
8643;DHT22;4359;49.358;11.256;2022-08-02T12:44:26;32.10;91.10
8643;DHT22;4359;49.358;11.256;2022-08-02T12:47:03;32.90;90.60
8643;DHT22;4359;49.358;11.256;2022-08-02T12:49:29;32.90;88.50
8643;DHT22;4359;49.358;11.256;2022-08-02T12:51:55;32.00;89.50
8643;DHT22;4359;49.358;11.256;2022-08-02T12:54:29;31.50;90.50
8643;DHT22;4359;49.358;11.256;2022-08-02T12:56:57;31.10;90.90
8643;DHT22;4359;49.358;11.256;2022-08-02T12:59:37;30.10;91.20
8643;DHT22;4359;49.358;11.256;2022-08-02T13:02:05;29.50;91.20
8643;DHT22;4359;49.358;11.256;2022-08-02T13:04:32;29.60;91.90
8643;DHT22;4359;49.358;11.256;2022-08-02T13:06:58;30.20;92.40
8643;DHT22;4359;49.358;11.256;2022-08-02T13:09:24;30.50;91.10
8643;DHT22;4359;49.358;11.256;2022-08-02T13:11:49;30.60;91.30
8643;DHT22;4359;49.358;11.256;2022-08-02T13:14:15;30.40;91.20
8643;DHT22;4359;49.358;11.256;2022-08-02T13:16:43;30.30;91.40
8643;DHT22;4359;49.358;11.256;2022-08-02T13:19:09;30.30;92.60
8643;DHT22;4359;49.358;11.256;2022-08-02T13:21:35;30.80;91.20
8643;DHT22;4359;49.358;11.256;2022-08-02T13:24:00;31.50;90.70
8643;DHT22;4359;49.358;11.256;2022-08-02T13:26:26;32.00;89.40
8643;DHT22;4359;49.358;11.256;2022-08-02T13:28:52;32.00;89.70
8643;DHT22;4359;49.358;11.256;2022-08-02T13:31:17;31.80;88.10
8643;DHT22;4359;49.358;11.256;2022-08-02T13:33:43;31.30;89.00
8643;DHT22;4359;49.358;11.256;2022-08-02T13:36:09;30.80;90.10
8643;DHT22;4359;49.358;11.256;2022-08-02T13:38:34;30.60;90.10
8643;DHT22;4359;49.358;11.256;2022-08-02T13:41:00;30.50;90.70
8643;DHT22;4359;49.358;11.256;2022-08-02T13:43:35;30.50;90.40
8643;DHT22;4359;49.358;11.256;2022-08-02T13:46:03;30.40;90.60
8643;DHT22;4359;49.358;11.256;2022-08-02T13:48:29;30.20;90.40
8643;DHT22;4359;49.358;11.256;2022-08-02T13:50:55;29.80;90.80
8643;DHT22;4359;49.358;11.256;2022-08-02T13:53:21;29.80;90.70
8643;DHT22;4359;49.358;11.256;2022-08-02T13:55:47;29.70;91.10
8643;DHT22;4359;49.358;11.256;2022-08-02T13:58:13;29.60;91.30
8643;DHT22;4359;49.358;11.256;2022-08-02T14:00:38;29.50;91.30
8643;DHT22;4359;49.358;11.256;2022-08-02T14:03:05;29.20;91.70
8643;DHT22;4359;49.358;11.256;2022-08-02T14:05:35;29.20;92.30
8643;DHT22;4359;49.358;11.256;2022-08-02T14:08:01;29.20;91.50
8643;DHT22;4359;49.358;11.256;2022-08-02T14:10:27;29.30;91.70
8643;DHT22;4359;49.358;11.256;2022-08-02T14:12:52;29.40;91.30
8643;DHT22;4359;49.358;11.256;2022-08-02T14:15:18;29.50;91.50
8643;DHT22;4359;49.358;11.256;2022-08-02T14:17:44;29.60;90.90
8643;DHT22;4359;49.358;11.256;2022-08-02T14:20:10;29.70;91.70
8643;DHT22;4359;49.358;11.256;2022-08-02T14:22:36;29.70;91.10
8643;DHT22;4359;49.358;11.256;2022-08-02T14:25:02;29.60;91.00
8643;DHT22;4359;49.358;11.256;2022-08-02T14:27:28;29.60;91.20
8643;DHT22;4359;49.358;11.256;2022-08-02T14:29:56;29.50;91.10
8643;DHT22;4359;49.358;11.256;2022-08-02T14:32:22;29.40;90.60
8643;DHT22;4359;49.358;11.256;2022-08-02T14:34:47;29.30;90.90
8643;DHT22;4359;49.358;11.256;2022-08-02T14:37:13;29.30;90.70
8643;DHT22;4359;49.358;11.256;2022-08-02T14:39:39;29.40;90.40
8643;DHT22;4359;49.358;11.256;2022-08-02T14:42:05;29.50;90.40
8643;DHT22;4359;49.358;11.256;2022-08-02T14:44:32;29.70;90.30
8643;DHT22;4359;49.358;11.256;2022-08-02T14:46:58;29.60;90.20
8643;DHT22;4359;49.358;11.256;2022-08-02T14:49:24;29.50;90.00
8643;DHT22;4359;49.358;11.256;2022-08-02T14:51:49;29.70;91.00
8643;DHT22;4359;49.358;11.256;2022-08-02T14:54:15;29.70;90.60
8643;DHT22;4359;49.358;11.256;2022-08-02T14:56:41;29.90;90.00
8643;DHT22;4359;49.358;11.256;2022-08-02T14:59:07;30.20;88.50
8643;DHT22;4359;49.358;11.256;2022-08-02T15:01:33;31.20;88.10
8643;DHT22;4359;49.358;11.256;2022-08-02T15:03:59;32.10;85.40
8643;DHT22;4359;49.358;11.256;2022-08-02T15:06:25;33.60;84.90
8643;DHT22;4359;49.358;11.256;2022-08-02T15:08:56;34.50;81.30
8643;DHT22;4359;49.358;11.256;2022-08-02T15:11:22;34.60;80.50
8643;DHT22;4359;49.358;11.256;2022-08-02T15:13:48;35.20;79.30
8643;DHT22;4359;49.358;11.256;2022-08-02T15:16:13;35.70;78.90
8643;DHT22;4359;49.358;11.256;2022-08-02T15:18:39;34.90;77.40
8643;DHT22;4359;49.358;11.256;2022-08-02T15:21:05;33.80;79.30
8643;DHT22;4359;49.358;11.256;2022-08-02T15:23:31;32.60;80.80
8643;DHT22;4359;49.358;11.256;2022-08-02T15:25:57;32.00;82.00
8643;DHT22;4359;49.358;11.256;2022-08-02T15:28:22;31.50;83.60
8643;DHT22;4359;49.358;11.256;2022-08-02T15:30:49;31.00;83.80
8643;DHT22;4359;49.358;11.256;2022-08-02T15:33:15;31.60;84.00
8643;DHT22;4359;49.358;11.256;2022-08-02T15:35:40;31.90;83.10
8643;DHT22;4359;49.358;11.256;2022-08-02T15:38:06;32.30;82.40
8643;DHT22;4359;49.358;11.256;2022-08-02T15:40:32;32.10;82.50
8643;DHT22;4359;49.358;11.256;2022-08-02T15:42:58;31.80;83.30
8643;DHT22;4359;49.358;11.256;2022-08-02T15:45:23;31.80;83.20
8643;DHT22;4359;49.358;11.256;2022-08-02T15:47:52;31.30;83.10
8643;DHT22;4359;49.358;11.256;2022-08-02T15:50:18;30.80;84.00
8643;DHT22;4359;49.358;11.256;2022-08-02T15:52:43;30.50;85.10
8643;DHT22;4359;49.358;11.256;2022-08-02T15:55:09;30.60;84.60
8643;DHT22;4359;49.358;11.256;2022-08-02T15:57:35;30.70;85.50
8643;DHT22;4359;49.358;11.256;2022-08-02T16:00:01;30.90;83.90
8643;DHT22;4359;49.358;11.256;2022-08-02T16:02:26;30.90;84.30
8643;DHT22;4359;49.358;11.256;2022-08-02T16:04:52;31.00;83.60
8643;DHT22;4359;49.358;11.256;2022-08-02T16:07:17;31.20;83.10
8643;DHT22;4359;49.358;11.256;2022-08-02T16:09:43;31.30;82.40
8643;DHT22;4359;49.358;11.256;2022-08-02T16:12:09;31.50;82.80
8643;DHT22;4359;49.358;11.256;2022-08-02T16:14:34;31.50;81.80
8643;DHT22;4359;49.358;11.256;2022-08-02T16:17:00;31.50;83.30
8643;DHT22;4359;49.358;11.256;2022-08-02T16:19:26;31.10;83.40
8643;DHT22;4359;49.358;11.256;2022-08-02T16:21:53;30.70;84.00
8643;DHT22;4359;49.358;11.256;2022-08-02T16:24:18;30.40;83.60